Time;durP1;ratioP1;P1;durP2;ratioP2;P2;SDS_P1;SDS_P2;PMS_P1;PMS_P2;Temp;Humidity;BMP_temperature;BMP_pressure;BME280_temperature;BME280_humidity;BME280_pressure;Samples;Min_cycle;Max_cycle;Signal;HPM_P1;HPM_P2
2022/12/08 00:01:32;;;;;;;1.67;0.63;;;;;;;3.44;100.00;101019.44;5058582;28;20476;-73
2022/12/08 00:03:59;;;;;;;3.50;0.52;;;;;;;3.43;100.00;101017.66;5039894;28;20495;-72
2022/12/08 00:09:31;;;;;;;1.42;0.70;;;;;;;3.36;100.00;101017.38;5041890;28;20495;-73
2022/12/08 00:12:05;;;;;;;3.35;0.73;;;;;;;3.36;100.00;101009.56;5049293;28;20033;-73
2022/12/08 00:14:31;;;;;;;;;;;;;;;3.33;100.00;100998.13;5048624;28;20039;-73
2022/12/08 00:16:58;;;;;;;2.97;0.75;;;;;;;3.31;100.00;100995.44;5049219;28;19912;-72
2022/12/08 00:19:25;;;;;;;1.90;0.70;;;;;;;3.27;100.00;100979.59;5046658;28;20380;-72
2022/12/08 00:21:51;;;;;;;0.57;0.50;;;;;;;3.24;100.00;100977.75;5051702;28;20035;-71
2022/12/08 00:24:17;;;;;;;4.38;1.10;;;;;;;3.23;100.00;100975.06;5039370;28;20087;-72
2022/12/08 00:26:43;;;;;;;4.07;0.80;;;;;;;3.19;100.00;100974.06;5038989;28;20029;-72
2022/12/08 00:29:09;;;;;;;2.13;0.95;;;;;;;3.17;100.00;100974.00;5033673;28;20029;-73
2022/12/08 00:31:34;;;;;;;3.53;1.10;;;;;;;3.16;100.00;100971.28;5038589;28;20025;-72
2022/12/08 00:34:00;;;;;;;7.10;2.45;;;;;;;3.15;100.00;100966.91;5042755;28;20032;-72
2022/12/08 00:36:25;;;;;;;4.75;2.67;;;;;;;3.14;100.00;100960.81;5047810;28;20031;-72
2022/12/08 00:38:51;;;;;;;3.75;2.28;;;;;;;3.13;100.00;100956.41;5051657;28;20055;-71
2022/12/08 00:42:10;;;;;;;6.95;3.25;;;;;;;3.19;100.00;100956.72;5042699;28;20035;-71
2022/12/08 00:44:06;;;;;;;6.25;4.35;;;;;;;3.20;100.00;100949.81;5049408;28;20029;-71
2022/12/08 00:46:31;;;;;;;8.05;5.38;;;;;;;3.19;100.00;100953.25;5050762;28;20389;-71
2022/12/08 00:48:56;;;;;;;10.23;6.28;;;;;;;3.20;100.00;100947.22;5045661;28;20071;-71
2022/12/08 00:51:22;;;;;;;8.82;6.30;;;;;;;3.23;100.00;100949.97;5054439;28;20461;-73
2022/12/08 00:53:47;;;;;;;15.13;6.85;;;;;;;3.25;100.00;100948.31;5057086;28;20056;-73
2022/12/08 00:56:12;;;;;;;12.68;7.55;;;;;;;3.24;100.00;100946.53;5055671;28;20150;-71
2022/12/08 00:58:38;;;;;;;15.98;8.02;;;;;;;3.25;100.00;100956.13;5050404;28;20118;-72
2022/12/08 01:01:09;;;;;;;9.38;6.97;;;;;;;3.30;100.00;100958.97;5045183;28;20083;-72
2022/12/08 01:03:34;;;;;;;14.57;7.82;;;;;;;3.31;100.00;100951.25;5057809;28;20021;-71
2022/12/08 01:06:02;;;;;;;14.20;7.18;;;;;;;3.33;100.00;100957.38;5047787;28;20037;-71
2022/12/08 01:08:28;;;;;;;13.52;7.25;;;;;;;3.34;100.00;100961.78;5055328;28;20607;-71
2022/12/08 01:10:53;;;;;;;10.15;5.72;;;;;;;3.34;100.00;100955.69;5042403;28;20104;-72
2022/12/08 01:13:18;;;;;;;9.50;4.22;;;;;;;3.38;100.00;100944.63;5054799;28;20171;-72
2022/12/08 01:15:44;;;;;;;6.20;2.63;;;;;;;3.40;100.00;100942.09;5049920;28;20071;-72
2022/12/08 01:18:09;;;;;;;6.82;2.45;;;;;;;3.40;100.00;100931.69;5048900;28;20426;-71
2022/12/08 01:20:34;;;;;;;9.02;2.60;;;;;;;3.43;100.00;100924.00;5043041;28;20548;-73
2022/12/08 01:23:00;;;;;;;3.92;2.05;;;;;;;3.43;100.00;100921.41;5045646;28;20104;-72
2022/12/08 01:25:25;;;;;;;4.15;2.08;;;;;;;3.40;100.00;100924.75;5064532;28;20108;-72
2022/12/08 01:27:51;;;;;;;13.70;2.15;;;;;;;3.40;100.00;100913.47;5048263;28;20092;-72
2022/12/08 01:30:17;;;;;;;3.47;1.88;;;;;;;3.38;100.00;100916.00;5041610;28;20080;-71
2022/12/08 01:32:42;;;;;;;8.88;2.47;;;;;;;3.37;100.00;100922.91;5055004;28;20017;-73
2022/12/08 01:35:08;;;;;;;3.67;1.60;;;;;;;3.37;100.00;100916.81;5049177;28;20024;-72
2022/12/08 01:37:33;;;;;;;5.55;1.20;;;;;;;3.40;100.00;100910.88;5053180;28;20513;-72
2022/12/08 01:39:58;;;;;;;5.53;0.93;;;;;;;3.43;100.00;100903.19;5051774;28;20569;-72
2022/12/08 01:42:24;;;;;;;2.35;1.17;;;;;;;3.38;100.00;100901.28;5043249;28;20499;-72
2022/12/08 01:44:56;;;;;;;2.58;1.67;;;;;;;3.38;100.00;100910.81;5043864;28;20021;-73
2022/12/08 01:47:25;;;;;;;4.57;1.50;;;;;;;3.34;100.00;100914.97;5045756;28;20072;-72
2022/12/08 01:49:50;;;;;;;2.67;0.90;;;;;;;3.35;100.00;100929.75;5048097;28;20067;-72
2022/12/08 01:52:37;;;;;;;2.88;0.70;;;;;;;3.35;100.00;100924.56;5041836;28;20052;-72
2022/12/08 01:55:19;;;;;;;5.88;0.68;;;;;;;3.37;100.00;100927.22;5058908;28;20060;-73
2022/12/08 01:57:53;;;;;;;4.80;0.70;;;;;;;3.36;100.00;100913.34;5066842;28;20492;-72
2022/12/08 02:00:20;;;;;;;5.07;1.02;;;;;;;3.37;100.00;100914.22;5042488;28;20026;-72
2022/12/08 02:02:57;;;;;;;11.57;1.30;;;;;;;3.37;100.00;100909.00;5045656;28;20086;-72
2022/12/08 02:05:26;;;;;;;6.93;1.10;;;;;;;3.37;100.00;100909.91;5045036;28;20029;-73
2022/12/08 02:07:53;;;;;;;2.03;0.77;;;;;;;3.38;100.00;100895.19;5052113;28;20029;-72
2022/12/08 02:10:21;;;;;;;8.60;0.95;;;;;;;3.38;100.00;100903.00;5037351;28;20529;-72
2022/12/08 02:12:50;;;;;;;3.85;0.57;;;;;;;3.38;100.00;100901.28;5050372;28;20532;-71
2022/12/08 02:15:15;;;;;;;4.68;0.70;;;;;;;3.39;100.00;100896.94;5054435;28;20037;-72
2022/12/08 02:18:01;;;;;;;7.18;1.15;;;;;;;3.40;100.00;100903.06;5050260;28;20047;-72
2022/12/08 02:20:36;;;;;;;5.72;0.55;;;;;;;3.41;100.00;100900.53;5034847;28;20453;-73
2022/12/08 02:23:40;;;;;;;4.18;0.70;;;;;;;3.47;100.00;100900.84;5045055;28;20119;-72
2022/12/08 02:26:08;;;;;;;4.03;0.70;;;;;;;3.53;100.00;100897.63;5043177;28;20033;-72
2022/12/08 02:28:52;;;;;;;2.90;0.50;;;;;;;3.55;100.00;100903.75;5044800;28;20370;-72
2022/12/08 02:31:23;;;;;;;0.47;0.10;;;;;;;3.59;100.00;100905.69;5053280;28;20025;-72
2022/12/08 02:34:03;;;;;;;4.80;0.50;;;;;;;3.56;100.00;100902.06;5060901;28;20396;-72
2022/12/08 02:36:31;;;;;;;1.13;0.68;;;;;;;3.49;100.00;100885.28;5055098;28;20385;-73
2022/12/08 02:39:14;;;;;;;1.20;0.20;;;;;;;3.44;100.00;100887.66;5054111;28;20099;-73
2022/12/08 02:41:46;;;;;;;3.47;0.50;;;;;;;3.38;100.00;100872.66;5035737;28;20033;-72
2022/12/08 02:44:23;;;;;;;3.10;0.55;;;;;;;3.34;100.00;100868.16;5060616;28;20028;-72
2022/12/08 02:46:57;;;;;;;1.33;0.32;;;;;;;3.32;100.00;100864.59;5060176;28;20078;-73
2022/12/08 02:49:33;;;;;;;0.68;0.20;;;;;;;3.30;100.00;100866.22;5058868;28;20036;-72
2022/12/08 02:52:10;;;;;;;3.15;0.50;;;;;;;3.32;100.00;100866.28;5062479;28;20021;-73
2022/12/08 02:54:37;;;;;;;0.98;0.38;;;;;;;3.32;100.00;100859.41;5063937;28;20059;-72
2022/12/08 02:57:12;;;;;;;1.77;0.40;;;;;;;3.30;100.00;100847.13;5065963;28;20448;-73
2022/12/08 02:59:54;;;;;;;3.38;1.05;;;;;;;3.27;100.00;100846.97;5052599;28;20048;-72
2022/12/08 03:02:40;;;;;;;1.52;0.50;;;;;;;3.25;100.00;100846.91;5051204;28;20387;-72
2022/12/08 03:05:27;;;;;;;4.40;0.50;;;;;;;3.27;100.00;100840.09;5038952;28;20036;-71
2022/12/08 03:08:03;;;;;;;6.38;0.40;;;;;;;3.29;100.00;100838.44;5047982;28;20028;-72
2022/12/08 03:10:34;;;;;;;3.05;0.20;;;;;;;3.31;100.00;100847.22;5046890;28;20028;-72
2022/12/08 03:13:07;;;;;;;3.28;0.85;;;;;;;3.34;100.00;100851.66;5044204;28;20074;-71
2022/12/08 03:15:35;;;;;;;3.50;0.50;;;;;;;3.36;100.00;100869.13;5056444;28;20039;-72
2022/12/08 03:18:03;;;;;;;7.78;0.60;;;;;;;3.34;100.00;100852.53;5051581;28;20052;-73
2022/12/08 03:20:31;;;;;;;4.75;1.13;;;;;;;3.32;100.00;100840.28;5059797;28;20426;-72
2022/12/08 03:23:00;;;;;;;6.57;0.40;;;;;;;3.31;100.00;100836.81;5048290;28;20108;-72
2022/12/08 03:25:30;;;;;;;3.55;0.43;;;;;;;3.30;100.00;100836.75;5060496;28;20044;-72
2022/12/08 03:27:57;;;;;;;8.93;0.65;;;;;;;3.28;100.00;100836.63;5055804;28;20025;-71
2022/12/08 03:30:23;;;;;;;13.05;0.95;;;;;;;3.28;100.00;100826.22;5044112;28;20390;-71
2022/12/08 03:33:02;;;;;;;5.10;0.50;;;;;;;3.29;100.00;100824.53;5055812;28;20183;-72
2022/12/08 03:35:34;;;;;;;7.97;0.98;;;;;;;3.28;100.00;100822.75;5042654;28;20033;-73
2022/12/08 03:38:06;;;;;;;0.25;0.20;;;;;;;3.27;100.00;100813.16;5051453;28;20066;-73
2022/12/08 03:40:31;;;;;;;2.88;0.70;;;;;;;3.22;100.00;100815.56;5045070;28;20075;-73
2022/12/08 03:42:57;;;;;;;4.03;0.50;;;;;;;3.21;100.00;100813.78;5048146;28;20481;-73
2022/12/08 03:45:22;;;;;;;2.10;0.38;;;;;;;3.18;100.00;100816.25;5047445;28;20128;-73
2022/12/08 03:47:47;;;;;;;1.65;0.50;;;;;;;3.16;100.00;100805.78;5052025;28;20124;-73
2022/12/08 03:50:13;;;;;;;3.33;0.28;;;;;;;3.15;100.00;100803.13;5050673;28;20052;-72
2022/12/08 03:52:38;;;;;;;1.42;0.30;;;;;;;3.16;100.00;100804.88;5051867;28;20465;-72
2022/12/08 03:55:04;;;;;;;0.75;0.40;;;;;;;3.15;100.00;100797.91;5042000;28;20021;-72
2022/12/08 03:57:29;;;;;;;9.20;0.68;;;;;;;3.15;100.00;100808.31;5044650;28;20060;-73
2022/12/08 03:59:55;;;;;;;3.13;0.35;;;;;;;3.16;100.00;100811.00;5040218;28;20059;-72
2022/12/08 04:02:20;;;;;;;8.40;0.57;;;;;;;3.19;100.00;100805.03;5067540;28;20127;-73
2022/12/08 04:04:45;;;;;;;4.32;0.45;;;;;;;3.20;100.00;100804.19;5046500;28;20359;-73
2022/12/08 04:07:11;;;;;;;9.23;1.02;;;;;;;3.23;100.00;100806.06;5053155;28;20028;-73
2022/12/08 04:09:37;;;;;;;3.78;0.52;;;;;;;3.25;100.00;100794.91;5050958;28;20099;-72
2022/12/08 04:12:03;;;;;;;4.55;0.32;;;;;;;3.29;100.00;100790.75;5038093;28;20079;-72
2022/12/08 04:14:28;;;;;;;4.35;0.30;;;;;;;3.30;100.00;100797.72;5052421;28;20029;-72
2022/12/08 04:16:54;;;;;;;7.82;1.20;;;;;;;3.30;100.00;100803.81;5044949;28;20028;-71
2022/12/08 04:19:19;;;;;;;3.35;0.25;;;;;;;3.30;100.00;100798.59;5049223;28;20039;-72
2022/12/08 04:21:45;;;;;;;4.32;0.60;;;;;;;3.29;100.00;100794.22;5048942;28;20060;-73
2022/12/08 04:24:10;;;;;;;2.72;0.30;;;;;;;3.30;100.00;100789.94;5047361;28;20044;-73
2022/12/08 04:26:36;;;;;;;1.58;0.47;;;;;;;3.30;100.00;100793.41;5042675;28;20072;-72
2022/12/08 04:29:01;;;;;;;3.65;0.30;;;;;;;3.31;100.00;100790.00;5034744;28;20084;-72
2022/12/08 04:31:26;;;;;;;5.75;1.42;;;;;;;3.31;100.00;100782.19;5037638;28;20025;-73
2022/12/08 04:33:52;;;;;;;3.90;0.40;;;;;;;3.32;100.00;100791.78;5034570;28;20032;-72
2022/12/08 04:36:17;;;;;;;3.63;0.75;;;;;;;3.30;100.00;100783.00;5049668;28;20040;-73
2022/12/08 04:38:42;;;;;;;2.65;0.25;;;;;;;3.31;100.00;100784.78;5055901;28;20313;-71
2022/12/08 04:41:08;;;;;;;1.65;0.52;;;;;;;3.33;100.00;100777.06;5032472;28;20056;-74
2022/12/08 04:43:34;;;;;;;3.45;0.55;;;;;;;3.34;100.00;100768.44;5054359;28;20024;-73
2022/12/08 04:45:59;;;;;;;3.03;0.40;;;;;;;3.32;100.00;100765.78;5041631;28;20038;-72
2022/12/08 04:48:25;;;;;;;0.90;0.55;;;;;;;3.35;100.00;100759.78;5061044;28;20029;-73
2022/12/08 04:50:50;;;;;;;0.43;0.20;;;;;;;3.34;100.00;100764.09;5051844;28;20101;-73
2022/12/08 04:53:16;;;;;;;2.53;0.25;;;;;;;3.35;100.00;100765.91;5055328;28;20009;-73
2022/12/08 04:55:43;;;;;;;5.25;0.32;;;;;;;3.33;100.00;100759.72;5056278;28;20025;-72
2022/12/08 04:58:12;;;;;;;4.47;1.08;;;;;;;3.30;100.00;100758.72;5051394;28;20045;-73
2022/12/08 05:00:38;;;;;;;2.38;0.28;;;;;;;3.31;100.00;100757.88;5047074;28;20052;-73
2022/12/08 05:03:04;;;;;;;1.08;0.60;;;;;;;3.27;100.00;100755.97;5057832;28;20384;-72
2022/12/08 05:05:29;;;;;;;1.30;0.55;;;;;;;3.26;100.00;100760.28;5046375;28;20033;-72
2022/12/08 05:07:54;;;;;;;0.70;0.25;;;;;;;3.24;100.00;100759.31;5050293;28;20021;-73
2022/12/08 05:10:20;;;;;;;0.95;0.95;;;;;;;3.25;100.00;100755.91;5051036;28;20039;-73
2022/12/08 05:12:45;;;;;;;0.35;0.28;;;;;;;3.23;100.00;100756.66;5050271;28;20065;-72
2022/12/08 05:15:10;;;;;;;2.45;0.40;;;;;;;3.24;100.00;100745.44;5051009;28;20044;-73
2022/12/08 05:17:36;;;;;;;3.92;0.40;;;;;;;3.21;100.00;100748.78;5060603;28;20031;-72
2022/12/08 05:20:01;;;;;;;6.50;0.47;;;;;;;3.21;100.00;100743.56;5054777;28;20067;-72
2022/12/08 05:22:26;;;;;;;0.65;0.43;;;;;;;3.21;100.00;100740.97;5049055;28;20029;-72
2022/12/08 05:24:52;;;;;;;1.40;0.40;;;;;;;3.21;100.00;100735.78;5060537;28;20075;-73
2022/12/08 05:27:18;;;;;;;4.30;0.40;;;;;;;3.18;100.00;100731.31;5050966;28;20127;-72
2022/12/08 05:29:43;;;;;;;11.25;0.88;;;;;;;3.20;100.00;100734.00;5065551;28;20119;-72
2022/12/08 05:32:08;;;;;;;3.55;0.65;;;;;;;3.23;100.00;100741.03;5060098;28;20108;-72
2022/12/08 05:34:34;;;;;;;1.08;0.40;;;;;;;3.32;100.00;100754.47;5036447;28;20451;-73
2022/12/08 05:36:59;;;;;;;2.75;0.50;;;;;;;3.41;100.00;100739.25;5030545;28;20423;-73
2022/12/08 05:39:24;;;;;;;4.57;0.30;;;;;;;3.33;100.00;100740.63;5044456;28;20057;-73
2022/12/08 05:41:50;;;;;;;1.08;0.40;;;;;;;3.23;100.00;100754.03;5050571;28;20029;-71
2022/12/08 05:44:15;;;;;;;2.67;0.60;;;;;;;3.18;100.00;100767.72;5048710;28;20082;-72
2022/12/08 05:46:40;;;;;;;5.53;0.30;;;;;;;3.13;100.00;100768.34;5045880;28;20554;-72
2022/12/08 05:49:06;;;;;;;8.48;0.43;;;;;;;3.07;100.00;100783.69;5049696;28;20424;-71
2022/12/08 05:51:31;;;;;;;2.60;0.95;;;;;;;2.96;100.00;100786.66;5053458;28;20451;-71
2022/12/08 05:53:57;;;;;;;4.03;0.20;;;;;;;2.92;100.00;100789.06;5052466;28;20027;-71
2022/12/08 05:56:22;;;;;;;1.25;0.13;;;;;;;2.87;100.00;100786.22;5058776;28;20063;-72
2022/12/08 05:58:49;;;;;;;1.75;0.25;;;;;;;2.80;100.00;100789.38;5050672;28;20044;-71
2022/12/08 06:01:32;;;;;;;1.98;0.10;;;;;;;2.73;100.00;100792.47;5056323;28;20523;-72
2022/12/08 06:04:00;;;;;;;1.20;0.22;;;;;;;2.67;100.00;100785.28;5050392;28;20024;-72
2022/12/08 06:06:26;;;;;;;1.88;0.10;;;;;;;2.60;100.00;100791.00;5042929;28;20090;-72
2022/12/08 06:08:52;;;;;;;0.98;0.20;;;;;;;2.56;100.00;100779.56;5045400;28;20036;-72
2022/12/08 06:11:23;;;;;;;0.30;0.30;;;;;;;2.56;100.00;100774.38;5043409;28;20037;-71
2022/12/08 06:13:49;;;;;;;3.70;0.40;;;;;;;2.55;100.00;100774.31;5038968;28;20033;-72
2022/12/08 06:16:16;;;;;;;1.15;0.40;;;;;;;2.53;100.00;100771.66;5062798;28;20037;-72
2022/12/08 06:18:41;;;;;;;2.05;0.30;;;;;;;2.50;100.00;100763.72;5049828;28;20083;-73
2022/12/08 06:21:09;;;;;;;2.85;0.25;;;;;;;2.47;100.00;100764.47;5048094;28;20048;-72
2022/12/08 06:23:35;;;;;;;2.17;0.25;;;;;;;2.47;100.00;100763.56;5053679;28;20103;-72
2022/12/08 06:26:02;;;;;;;2.63;0.38;;;;;;;2.45;100.00;100771.28;5050484;28;20124;-73
2022/12/08 06:28:29;;;;;;;1.50;0.25;;;;;;;2.45;100.00;100760.00;5050853;28;20036;-72
2022/12/08 06:30:54;;;;;;;3.50;0.68;;;;;;;2.42;100.00;100745.16;5044212;28;20025;-72
2022/12/08 06:33:24;;;;;;;3.67;0.85;;;;;;;2.39;100.00;100749.31;5044041;28;20032;-72
2022/12/08 06:35:49;;;;;;;1.83;0.52;;;;;;;2.41;100.00;100742.50;5054391;28;20418;-72
2022/12/08 06:38:14;;;;;;;1.20;0.38;;;;;;;2.40;100.00;100740.72;5051366;28;20024;-72
2022/12/08 06:40:40;;;;;;;2.53;0.40;;;;;;;2.38;100.00;100739.75;5059161;28;20116;-73
2022/12/08 06:43:05;;;;;;;1.83;0.47;;;;;;;2.40;100.00;100740.72;5056786;28;20492;-71
2022/12/08 06:45:30;;;;;;;1.10;0.20;;;;;;;2.41;100.00;100739.91;5051158;28;20084;-73
2022/12/08 06:47:56;;;;;;;4.65;0.50;;;;;;;2.39;100.00;100739.84;5057334;28;20395;-76
2022/12/08 06:50:21;;;;;;;1.70;0.38;;;;;;;2.37;100.00;100746.63;5066729;28;20025;-75
2022/12/08 06:52:46;;;;;;;0.90;0.38;;;;;;;2.36;100.00;100739.66;5051789;28;20017;-76
2022/12/08 06:55:12;;;;;;;0.65;0.40;;;;;;;2.35;100.00;100738.78;5049277;28;20033;-73
2022/12/08 06:57:37;;;;;;;2.10;0.63;;;;;;;2.38;100.00;100737.16;5060714;28;20039;-73
2022/12/08 07:00:04;;;;;;;1.05;0.60;;;;;;;2.37;100.00;100746.63;5074099;28;20036;-72
2022/12/08 07:02:30;;;;;;;1.40;1.10;;;;;;;2.36;100.00;100745.75;5073505;28;20029;-72
2022/12/08 07:04:55;;;;;;;5.68;0.77;;;;;;;2.36;100.00;100737.97;5047744;28;20035;-72
2022/12/08 07:07:20;;;;;;;2.70;0.77;;;;;;;2.35;100.00;100737.91;5049378;28;20388;-72
2022/12/08 07:09:47;;;;;;;3.00;1.05;;;;;;;2.35;100.00;100735.31;5055315;28;20383;-71
2022/12/08 07:12:12;;;;;;;0.95;0.82;;;;;;;2.29;100.00;100732.41;5045507;28;20017;-72
2022/12/08 07:14:38;;;;;;;1.30;0.90;;;;;;;2.28;100.00;100731.53;5050624;28;20024;-72
2022/12/08 07:17:03;;;;;;;5.25;1.23;;;;;;;2.30;100.00;100734.19;5053616;28;20024;-72
2022/12/08 07:19:28;;;;;;;4.70;1.00;;;;;;;2.29;100.00;100733.31;5044115;28;20392;-75
2022/12/08 07:21:54;;;;;;;1.98;1.52;;;;;;;2.30;100.00;100734.19;5053111;28;20083;-72
2022/12/08 07:24:19;;;;;;;1.88;0.88;;;;;;;2.28;100.00;100728.03;5051424;28;20037;-72
2022/12/08 07:26:44;;;;;;;3.28;0.80;;;;;;;2.26;100.00;100722.75;5046692;28;20091;-72
2022/12/08 07:29:10;;;;;;;0.70;0.70;;;;;;;2.28;100.00;100728.94;5051056;28;20104;-72
2022/12/08 07:31:36;;;;;;;5.07;0.90;;;;;;;2.27;100.00;100729.75;5039147;28;20025;-72
2022/12/08 07:34:01;;;;;;;2.90;0.80;;;;;;;2.25;100.00;100718.41;5052293;28;20040;-72
2022/12/08 07:36:26;;;;;;;5.13;1.13;;;;;;;2.29;100.00;100730.72;5053088;28;20385;-74
2022/12/08 07:38:52;;;;;;;3.03;1.17;;;;;;;2.30;100.00;100736.78;5046962;28;20025;-74
2022/12/08 07:41:21;;;;;;;4.78;1.13;;;;;;;2.30;100.00;100724.69;5043592;28;20029;-73
2022/12/08 07:43:46;;;;;;;3.05;1.30;;;;;;;2.32;100.00;100727.34;5048319;28;20025;-73
2022/12/08 07:46:17;;;;;;;4.70;1.30;;;;;;;2.33;100.00;100719.66;5054087;28;20427;-73
2022/12/08 07:48:43;;;;;;;3.05;1.30;;;;;;;2.34;100.00;100721.41;5041605;28;20040;-73
2022/12/08 07:51:11;;;;;;;2.38;1.80;;;;;;;2.38;100.00;100726.78;5063586;28;20115;-72
2022/12/08 07:53:41;;;;;;;6.97;1.30;;;;;;;2.39;100.00;100721.66;5050278;28;20025;-73
2022/12/08 07:56:08;;;;;;;3.25;1.40;;;;;;;2.42;100.00;100728.69;5036194;28;20474;-75
2022/12/08 07:58:33;;;;;;;2.65;1.45;;;;;;;2.43;100.00;100720.06;5052066;28;20048;-76
2022/12/08 08:00:59;;;;;;;2.10;1.38;;;;;;;2.46;100.00;100722.84;5046245;28;20575;-76
2022/12/08 08:03:24;;;;;;;3.13;1.42;;;;;;;2.48;100.00;100727.28;5050459;28;20021;-75
2022/12/08 08:05:50;;;;;;;3.78;1.50;;;;;;;2.52;100.00;100733.50;5050043;28;20358;-74
2022/12/08 08:08:16;;;;;;;3.28;1.50;;;;;;;2.54;100.00;100737.06;5044427;28;20067;-75
2022/12/08 08:10:42;;;;;;;5.80;1.52;;;;;;;2.57;100.00;100746.72;5044892;28;20035;-75
2022/12/08 08:13:08;;;;;;;2.85;0.95;;;;;;;2.61;100.00;100746.03;5051681;28;20029;-76
2022/12/08 08:15:33;;;;;;;5.40;1.02;;;;;;;2.61;100.00;100762.50;5046088;28;20028;-74
2022/12/08 08:17:59;;;;;;;2.45;1.08;;;;;;;2.62;100.00;100753.00;5042174;28;20025;-73
2022/12/08 08:20:24;;;;;;;5.60;1.20;;;;;;;2.61;100.00;100754.72;5047602;28;20629;-74
2022/12/08 08:22:50;;;;;;;1.77;0.90;;;;;;;2.59;100.00;100758.97;5033437;28;20456;-76
2022/12/08 08:25:17;;;;;;;3.97;1.02;;;;;;;2.54;100.00;100765.66;5057060;28;20029;-74
2022/12/08 08:27:42;;;;;;;4.43;1.08;;;;;;;2.52;100.00;100762.97;5038574;28;20079;-75
2022/12/08 08:30:10;;;;;;;8.75;1.05;;;;;;;2.50;100.00;100768.91;5042348;28;20030;-72
2022/12/08 08:32:36;;;;;;;7.15;1.30;;;;;;;2.43;100.00;100772.00;5034314;28;20104;-73
2022/12/08 08:35:02;;;;;;;1.77;0.52;;;;;;;2.40;100.00;100777.06;5037976;28;20392;-75
2022/12/08 08:37:27;;;;;;;4.13;0.60;;;;;;;2.40;100.00;100767.59;5050039;28;20029;-75
2022/12/08 08:39:52;;;;;;;2.03;0.80;;;;;;;2.35;100.00;100772.53;5034475;28;20017;-72
2022/12/08 08:42:18;;;;;;;3.75;0.82;;;;;;;2.32;100.00;100764.59;5035571;28;20025;-71
2022/12/08 08:44:43;;;;;;;9.07;0.80;;;;;;;2.32;100.00;100768.88;5043221;28;20092;-72
2022/12/08 08:47:09;;;;;;;4.47;0.80;;;;;;;2.28;100.00;100761.78;5042650;28;20021;-73
2022/12/08 08:49:34;;;;;;;0.85;0.60;;;;;;;2.19;100.00;100757.91;5048103;28;20021;-72
2022/12/08 08:51:59;;;;;;;2.45;0.52;;;;;;;2.17;100.00;100769.94;5046299;28;20400;-73
2022/12/08 08:54:27;;;;;;;3.55;0.80;;;;;;;2.17;100.00;100774.22;5047126;28;20057;-73
2022/12/08 08:56:53;;;;;;;2.55;0.77;;;;;;;2.17;100.00;100775.13;5038996;28;20021;-73
2022/12/08 08:59:18;;;;;;;1.65;0.90;;;;;;;2.15;100.00;100770.69;5045727;28;20498;-72
2022/12/08 09:01:43;;;;;;;5.80;1.00;;;;;;;2.15;100.00;100765.50;5044065;28;20526;-72
2022/12/08 09:04:09;;;;;;;2.17;0.70;;;;;;;2.16;100.00;100767.28;5051261;28;20045;-71
2022/12/08 09:06:34;;;;;;;2.47;0.93;;;;;;;2.16;100.00;100764.69;5050454;28;20032;-72
2022/12/08 09:09:00;;;;;;;2.92;0.88;;;;;;;2.10;100.00;100767.84;5039744;28;20075;-73
2022/12/08 09:11:25;;;;;;;3.08;1.02;;;;;;;2.06;100.00;100762.44;5050508;28;20025;-72
2022/12/08 09:13:53;;;;;;;6.22;0.80;;;;;;;2.09;100.00;100753.09;5049854;28;20310;-73
2022/12/08 09:16:20;;;;;;;8.65;1.27;;;;;;;2.09;100.00;100749.59;5034644;28;20104;-73
2022/12/08 09:18:48;;;;;;;3.78;0.95;;;;;;;2.09;100.00;100739.22;5039699;28;20025;-71
2022/12/08 09:21:19;;;;;;;2.75;0.70;;;;;;;2.14;100.00;100753.31;5052668;28;20032;-71
2022/12/08 09:23:44;;;;;;;9.13;0.90;;;;;;;2.10;100.00;100759.19;5048814;28;20025;-73
2022/12/08 09:26:10;;;;;;;3.97;0.70;;;;;;;2.11;100.00;100754.06;5052038;28;20036;-72
2022/12/08 09:28:35;;;;;;;1.13;0.68;;;;;;;2.16;100.00;100756.91;5036132;28;20044;-72
2022/12/08 09:31:01;;;;;;;2.80;0.77;;;;;;;2.21;100.00;100750.19;5032720;28;20049;-72
2022/12/08 09:33:26;;;;;;;3.53;0.88;;;;;;;2.22;100.00;100746.78;5043190;28;20104;-72
2022/12/08 09:35:51;;;;;;;1.27;0.68;;;;;;;2.22;100.00;100751.09;5049914;28;20063;-71
2022/12/08 09:38:17;;;;;;;6.75;1.50;;;;;;;2.21;100.00;100755.38;5045183;28;20392;-73
2022/12/08 09:40:51;;;;;;;2.15;1.00;;;;;;;2.23;100.00;100745.97;5031597;28;20472;-73
2022/12/08 09:43:26;;;;;;;7.22;1.27;;;;;;;2.27;100.00;100750.50;5048206;28;20044;-73
2022/12/08 09:45:53;;;;;;;3.22;1.10;;;;;;;2.30;100.00;100750.66;5048674;28;20036;-72
2022/12/08 09:48:26;;;;;;;2.03;1.38;;;;;;;2.29;100.00;100758.38;5047507;28;20032;-74
2022/12/08 09:50:57;;;;;;;1.88;1.20;;;;;;;2.32;100.00;100754.22;5052219;28;20040;-73
2022/12/08 09:53:57;;;;;;;3.55;1.48;;;;;;;2.35;100.00;100764.75;5049933;28;20029;-73
2022/12/08 09:56:28;;;;;;;3.28;1.30;;;;;;;2.36;100.00;100766.53;4987935;28;20030;-74
2022/12/08 09:59:02;;;;;;;6.18;2.05;;;;;;;2.35;100.00;100763.88;5031937;28;20069;-73
2022/12/08 10:01:31;;;;;;;3.30;1.45;;;;;;;2.36;100.00;100771.72;5047442;28;20025;-72
2022/12/08 10:03:57;;;;;;;1.73;1.05;;;;;;;2.40;100.00;100766.69;5043599;28;20033;-72
2022/12/08 10:06:47;;;;;;;1.00;0.50;;;;;;;2.34;100.00;100754.28;5050697;28;20079;-73
2022/12/08 10:09:42;;;;;;;4.40;1.08;;;;;;;2.36;100.00;100753.56;5037896;28;20057;-72
2022/12/08 10:12:28;;;;;;;1.58;0.65;;;;;;;2.42;100.00;100752.06;5040844;28;20473;-73
2022/12/08 10:15:13;;;;;;;2.53;0.70;;;;;;;2.46;100.00;100754.88;5051549;28;20061;-73
2022/12/08 10:17:47;;;;;;;2.50;0.80;;;;;;;2.41;100.00;100752.88;5046492;28;20031;-73
2022/12/08 10:20:12;;;;;;;3.03;0.80;;;;;;;2.40;100.00;100748.50;5053403;28;20029;-72
2022/12/08 10:22:38;;;;;;;1.48;0.60;;;;;;;2.44;100.00;100746.13;5047306;28;20109;-71
2022/12/08 10:25:10;;;;;;;0.98;0.50;;;;;;;2.47;100.00;100741.09;5054694;28;20469;-72
2022/12/08 10:27:36;;;;;;;1.40;0.57;;;;;;;2.51;100.00;100739.53;5055671;28;20449;-72
2022/12/08 10:30:09;;;;;;;5.78;1.05;;;;;;;2.41;100.00;100738.19;5054130;28;20043;-72
2022/12/08 10:32:34;;;;;;;3.13;0.55;;;;;;;2.40;100.00;100735.50;5068159;28;20017;-72
2022/12/08 10:35:07;;;;;;;1.67;0.57;;;;;;;2.45;100.00;100736.63;5054276;28;20716;-72
2022/12/08 10:37:33;;;;;;;3.13;0.45;;;;;;;2.42;100.00;100734.78;5044426;28;20341;-73
2022/12/08 10:40:12;;;;;;;1.08;0.77;;;;;;;2.38;100.00;100729.38;5055161;28;20029;-72
2022/12/08 10:42:45;;;;;;;1.98;0.75;;;;;;;2.45;100.00;100723.66;5054253;28;20473;-71
2022/12/08 10:45:24;;;;;;;4.17;0.73;;;;;;;2.49;100.00;100712.59;5052964;28;20029;-71
2022/12/08 10:47:55;;;;;;;2.03;0.98;;;;;;;2.48;100.00;100708.19;5051930;28;20313;-71
2022/12/08 10:50:49;;;;;;;2.67;0.93;;;;;;;2.52;100.00;100710.13;5054209;28;20033;-72
2022/12/08 10:53:17;;;;;;;;;;;;;;;2.47;100.00;100706.41;5052528;28;20029;-72
2022/12/08 10:55:50;;;;;;;3.65;0.93;;;;;;;2.36;100.00;100699.03;5046000;28;19979;-71
2022/12/08 10:58:25;;;;;;;2.78;0.90;;;;;;;2.42;100.00;100692.34;5040149;28;20354;-73
2022/12/08 11:00:54;;;;;;;3.60;0.70;;;;;;;2.47;100.00;100690.81;5039507;28;20412;-72
2022/12/08 11:03:43;;;;;;;0.80;0.73;;;;;;;2.53;100.00;100683.34;5041496;28;20480;-72
2022/12/08 11:06:15;;;;;;;0.93;0.70;;;;;;;2.51;100.00;100687.59;5043145;28;20428;-73
2022/12/08 11:08:48;;;;;;;7.53;1.45;;;;;;;2.54;100.00;100685.13;5046162;28;20028;-73
2022/12/08 11:11:13;;;;;;;5.93;0.98;;;;;;;2.48;100.00;100677.03;5054159;28;20456;-73
2022/12/08 11:13:41;;;;;;;2.13;0.90;;;;;;;2.44;100.00;100669.91;5044801;28;20021;-72
2022/12/08 11:16:07;;;;;;;3.38;1.05;;;;;;;2.45;100.00;100671.72;5053166;28;20104;-73
2022/12/08 11:18:45;;;;;;;1.98;0.75;;;;;;;2.43;100.00;100673.31;5045376;28;20080;-71
2022/12/08 11:21:14;;;;;;;3.88;1.30;;;;;;;2.47;100.00;100670.06;5046140;28;20056;-72
2022/12/08 11:23:42;;;;;;;4.97;1.02;;;;;;;2.53;100.00;100657.38;5065948;28;20024;-73
2022/12/08 11:26:34;;;;;;;3.30;0.98;;;;;;;2.68;100.00;100659.78;5047595;28;21903;-73
2022/12/08 11:29:03;;;;;;;0.70;0.70;;;;;;;2.59;100.00;100660.25;5043312;28;20111;-72
2022/12/08 11:31:38;;;;;;;4.90;1.20;;;;;;;2.63;100.00;100656.06;5052476;28;20078;-73
2022/12/08 11:34:05;;;;;;;2.05;0.85;;;;;;;2.65;100.00;100663.13;5047964;28;20033;-72